Terminal Aerodrome Forecast
Issued by NWS

Home | Current Version | Previous Version | Text Only | Print | Product List | Glossary On
Versions: 1 2 3 4 5 6 7 8 9 10 11 12 13 14 15 16 17 18 19 20 21 22
000
FTAK31 PAFA 300211 AAA
TAFAGA
TAF AMD
PAGA 300211Z 3002/3024 18006KT P6SM VCSH SCT040 BKN090
     FM300900 VRB03KT 6SM -SHRA BR BKN040 BKN090
     FM301500 VRB03KT P6SM VCSH SCT040 BKN100
     FM302100 05005KT P6SM SCT060 BKN100=

USA.gov is the U.S. government's official web portal to all federal, state and local government web resources and services.